Time;durP1;ratioP1;P1;durP2;ratioP2;P2;SDS_P1;SDS_P2;PMS_P1;PMS_P2;Temp;Humidity;BMP_temperature;BMP_pressure;BME280_temperature;BME280_humidity;BME280_pressure;Samples;Min_cycle;Max_cycle;Signal;HPM_P1;HPM_P2
2022/12/13 00:01:39;;;;;;;37.63;22.52;;;;;;;;;;5089491;28;20039;-72
2022/12/13 00:07:02;;;;;;;35.75;21.48;;;;;;;;;;5069069;28;20074;-73
2022/12/13 00:09:48;;;;;;;33.40;21.52;;;;;;;;;;5084154;28;20074;-72
2022/12/13 00:12:16;;;;;;;34.45;20.75;;;;;;;;;;5086527;28;20698;-72
2022/12/13 00:14:42;;;;;;;33.13;20.23;;;;;;;;;;5089040;28;20036;-72
2022/12/13 00:17:08;;;;;;;36.75;19.17;;;;;;;;;;5090389;28;20541;-72
2022/12/13 00:19:34;;;;;;;36.45;20.20;;;;;;;;;;5069514;28;20036;-73
2022/12/13 00:22:00;;;;;;;35.15;20.35;;;;;;;;;;5058262;28;20101;-72
2022/12/13 00:24:26;;;;;;;32.88;20.02;;;;;;;;;;5072234;28;20028;-72
2022/12/13 00:26:54;;;;;;;33.85;20.33;;;;;;;;;;5084859;28;20575;-72
2022/12/13 00:29:20;;;;;;;34.25;20.35;;;;;;;;;;5087894;28;20043;-72
2022/12/13 00:31:46;;;;;;;28.25;19.48;;;;;;;;;;5089720;28;20461;-72
2022/12/13 00:34:12;;;;;;;44.42;20.23;;;;;;;;;;5077198;28;20074;-71
2022/12/13 00:36:38;;;;;;;31.17;19.55;;;;;;;;;;5091967;28;20044;-72
2022/12/13 01:03:57;;;;;;;32.22;19.67;;;;;;;;;;5092805;28;20651;-73
2022/12/13 01:06:28;;;;;;;32.80;21.08;;;;;;;;;;5083827;28;20052;-72
2022/12/13 01:08:55;;;;;;;35.22;21.88;;;;;;;;;;5087620;28;20098;-72
2022/12/13 01:16:54;;;;;;;34.13;18.52;;;;;;;;;;5089651;28;20070;-72
2022/12/13 01:21:47;;;;;;;36.70;20.42;;;;;;;;;;5072566;28;20036;-72
2022/12/13 01:24:14;;;;;;;32.83;18.05;;;;;;;;;;5069503;28;20435;-72
2022/12/13 01:26:40;;;;;;;32.45;18.38;;;;;;;;;;5079673;28;20044;-72
2022/12/13 01:29:07;;;;;;;31.38;18.25;;;;;;;;;;5089470;28;20059;-71
2022/12/13 01:31:33;;;;;;;35.40;19.48;;;;;;;;;;5081340;28;20509;-72
2022/12/13 01:34:11;;;;;;;35.72;18.13;;;;;;;;;;5098068;28;20473;-72
2022/12/13 01:36:38;;;;;;;29.67;17.58;;;;;;;;;;5091537;28;20119;-72
2022/12/13 01:39:05;;;;;;;34.80;20.33;;;;;;;;;;5089642;28;20036;-72
2022/12/13 01:41:31;;;;;;;32.95;18.60;;;;;;;;;;5070026;28;20044;-71
2022/12/13 01:44:05;;;;;;;29.48;18.25;;;;;;;;;;5089738;28;20044;-72
2022/12/13 01:46:32;;;;;;;36.30;18.27;;;;;;;;;;5098763;28;20384;-72
2022/12/13 01:49:01;;;;;;;31.23;19.75;;;;;;;;;;5098009;28;20043;-71
2022/12/13 01:51:39;;;;;;;34.97;21.23;;;;;;;;;;5090001;28;20059;-72
2022/12/13 01:54:07;;;;;;;32.53;19.77;;;;;;;;;;5088023;28;20397;-72
2022/12/13 01:56:36;;;;;;;31.50;19.58;;;;;;;;;;5090638;28;20046;-72
2022/12/13 01:59:04;;;;;;;33.13;19.02;;;;;;;;;;5088126;28;20044;-72
2022/12/13 02:01:31;;;;;;;30.67;17.65;;;;;;;;;;5092867;28;20048;-72
2022/12/13 02:03:57;;;;;;;32.80;19.30;;;;;;;;;;5090019;28;20402;-72
2022/12/13 02:06:27;;;;;;;29.42;17.80;;;;;;;;;;5077029;28;20032;-73
2022/12/13 02:08:54;;;;;;;31.02;19.67;;;;;;;;;;5073254;28;20044;-72
2022/12/13 02:11:20;;;;;;;32.72;17.65;;;;;;;;;;5089688;28;20306;-73
2022/12/13 02:13:46;;;;;;;29.50;17.65;;;;;;;;;;5097902;28;20274;-72
2022/12/13 02:16:15;;;;;;;27.83;17.58;;;;;;;;;;5090933;28;20115;-72
2022/12/13 02:18:47;;;;;;;33.45;18.67;;;;;;;;;;5091056;28;20093;-72
2022/12/13 02:21:28;;;;;;;27.90;16.65;;;;;;;;;;5082697;28;20039;-72
2022/12/13 02:24:00;;;;;;;34.30;16.58;;;;;;;;;;5107263;27;20058;-71
2022/12/13 02:26:36;;;;;;;33.67;16.65;;;;;;;;;;5080843;28;20212;-71
2022/12/13 02:29:20;;;;;;;32.10;19.40;;;;;;;;;;5091746;28;20048;-72
2022/12/13 02:32:02;;;;;;;30.48;17.65;;;;;;;;;;5096987;28;20039;-72
2022/12/13 02:34:47;;;;;;;33.25;17.52;;;;;;;;;;5088628;28;20070;-72
2022/12/13 02:37:21;;;;;;;33.97;15.90;;;;;;;;;;5097260;28;20039;-72
2022/12/13 02:39:50;;;;;;;28.77;16.45;;;;;;;;;;5091694;28;20041;-71
2022/12/13 02:42:23;;;;;;;31.75;17.65;;;;;;;;;;5077275;28;20102;-71
2022/12/13 02:44:51;;;;;;;26.15;16.70;;;;;;;;;;5085613;28;20036;-71
2022/12/13 02:47:21;;;;;;;34.53;18.10;;;;;;;;;;5086534;28;20059;-72
2022/12/13 02:49:48;;;;;;;26.83;15.73;;;;;;;;;;5091376;28;20040;-71
2022/12/13 02:52:15;;;;;;;27.80;16.83;;;;;;;;;;5090899;28;20397;-71
2022/12/13 02:54:41;;;;;;;26.08;16.17;;;;;;;;;;5095493;28;20043;-71
2022/12/13 02:57:26;;;;;;;26.27;16.83;;;;;;;;;;5102816;27;20040;-71
2022/12/13 02:59:52;;;;;;;28.98;18.70;;;;;;;;;;5088982;28;20109;-71
2022/12/13 03:02:18;;;;;;;37.03;18.52;;;;;;;;;;5096869;28;20028;-71
2022/12/13 03:07:49;;;;;;;36.08;19.38;;;;;;;;;;5091434;28;20059;-71
2022/12/13 03:10:19;;;;;;;34.05;17.30;;;;;;;;;;5093680;28;20421;-71
2022/12/13 03:15:44;;;;;;;28.17;17.17;;;;;;;;;;5107148;27;20040;-73
2022/12/13 03:18:18;;;;;;;32.42;18.17;;;;;;;;;;5074461;28;20085;-71
2022/12/13 03:20:56;;;;;;;28.10;17.90;;;;;;;;;;5090008;28;20564;-71
2022/12/13 03:23:22;;;;;;;31.75;17.73;;;;;;;;;;5088551;28;20079;-71
2022/12/13 03:25:50;;;;;;;26.67;16.90;;;;;;;;;;5090191;28;20485;-71
2022/12/13 03:28:16;;;;;;;27.27;16.38;;;;;;;;;;5074739;28;20054;-71
2022/12/13 03:30:42;;;;;;;27.95;17.13;;;;;;;;;;5085912;28;20032;-71
2022/12/13 03:33:08;;;;;;;26.92;15.52;;;;;;;;;;5075595;28;20036;-71
2022/12/13 03:35:35;;;;;;;32.50;18.40;;;;;;;;;;5096372;28;20052;-71
2022/12/13 03:38:01;;;;;;;35.30;19.02;;;;;;;;;;5090630;28;20051;-71
2022/12/13 03:40:28;;;;;;;30.63;17.83;;;;;;;;;;5088944;28;20036;-71
2022/12/13 03:42:55;;;;;;;27.27;17.02;;;;;;;;;;5090703;28;20074;-71
2022/12/13 03:45:21;;;;;;;29.80;17.85;;;;;;;;;;5074614;28;20127;-71
2022/12/13 03:47:47;;;;;;;25.80;15.40;;;;;;;;;;5094701;28;20044;-72
2022/12/13 03:50:13;;;;;;;26.95;16.95;;;;;;;;;;5072103;28;20531;-71
2022/12/13 03:52:39;;;;;;;29.55;16.05;;;;;;;;;;5081991;28;20643;-71
2022/12/13 03:55:06;;;;;;;26.25;17.67;;;;;;;;;;5076316;28;20554;-71
2022/12/13 03:57:32;;;;;;;29.25;17.77;;;;;;;;;;5091844;28;20097;-71
2022/12/13 03:59:58;;;;;;;30.42;18.45;;;;;;;;;;5091903;28;20134;-72
2022/12/13 04:02:24;;;;;;;26.17;16.17;;;;;;;;;;5090770;28;20082;-71
2022/12/13 04:04:50;;;;;;;26.48;16.27;;;;;;;;;;5074006;28;20115;-71
2022/12/13 04:07:16;;;;;;;26.65;16.45;;;;;;;;;;5095867;28;20071;-72
2022/12/13 04:09:42;;;;;;;30.25;17.13;;;;;;;;;;5102329;28;20075;-71
2022/12/13 04:14:53;;;;;;;24.83;16.05;;;;;;;;;;5093754;28;20127;-71
2022/12/13 04:17:19;;;;;;;24.10;17.00;;;;;;;;;;5090234;28;20503;-71
2022/12/13 04:19:45;;;;;;;28.75;16.60;;;;;;;;;;5086112;28;20040;-71
2022/12/13 04:22:11;;;;;;;23.88;15.13;;;;;;;;;;5092891;28;20040;-71
2022/12/13 04:24:37;;;;;;;31.98;18.65;;;;;;;;;;5085857;28;20048;-73
2022/12/13 04:27:04;;;;;;;24.60;14.50;;;;;;;;;;5072258;28;20489;-71
2022/12/13 04:29:30;;;;;;;31.15;19.92;;;;;;;;;;5075294;28;20040;-71
2022/12/13 04:31:56;;;;;;;22.77;16.50;;;;;;;;;;5059404;28;20047;-72
2022/12/13 04:34:22;;;;;;;28.00;15.82;;;;;;;;;;5093371;28;20036;-71
2022/12/13 04:36:48;;;;;;;23.85;17.15;;;;;;;;;;5075581;28;20045;-71
2022/12/13 04:39:14;;;;;;;31.88;17.92;;;;;;;;;;5093356;28;20058;-71
2022/12/13 04:41:40;;;;;;;30.15;16.02;;;;;;;;;;5090838;28;20028;-71
2022/12/13 04:44:07;;;;;;;31.98;18.52;;;;;;;;;;5095886;28;20548;-71
2022/12/13 04:46:34;;;;;;;27.38;16.55;;;;;;;;;;5097670;28;20143;-72
2022/12/13 04:49:00;;;;;;;26.73;16.00;;;;;;;;;;5093738;28;20043;-73
2022/12/13 04:51:26;;;;;;;30.75;16.83;;;;;;;;;;5076511;28;20075;-71
2022/12/13 04:53:52;;;;;;;28.88;15.88;;;;;;;;;;5099238;28;20075;-71
2022/12/13 04:56:18;;;;;;;27.88;16.23;;;;;;;;;;5080211;28;20040;-71
2022/12/13 04:58:45;;;;;;;25.92;15.82;;;;;;;;;;5080335;28;20061;-71
2022/12/13 05:01:11;;;;;;;27.30;15.57;;;;;;;;;;5077782;28;20048;-71
2022/12/13 05:03:38;;;;;;;28.65;16.23;;;;;;;;;;5091605;28;20040;-71
2022/12/13 05:06:08;;;;;;;26.40;16.52;;;;;;;;;;5095160;28;20040;-72
2022/12/13 05:08:35;;;;;;;31.15;18.17;;;;;;;;;;5094106;28;20378;-71
2022/12/13 05:11:01;;;;;;;29.08;17.08;;;;;;;;;;5094204;28;20032;-71
2022/12/13 05:13:27;;;;;;;25.90;16.13;;;;;;;;;;5091900;28;20037;-71
2022/12/13 05:15:57;;;;;;;24.98;15.75;;;;;;;;;;5089934;28;20088;-72
2022/12/13 05:18:23;;;;;;;28.63;16.33;;;;;;;;;;5071359;28;20036;-71
2022/12/13 05:20:52;;;;;;;30.50;16.85;;;;;;;;;;5092414;28;20028;-71
2022/12/13 05:23:19;;;;;;;24.13;15.73;;;;;;;;;;5092103;28;20055;-71
2022/12/13 05:25:45;;;;;;;28.05;15.98;;;;;;;;;;5076868;28;20035;-71
2022/12/13 05:28:11;;;;;;;27.75;17.48;;;;;;;;;;5077563;28;20486;-70
2022/12/13 05:30:38;;;;;;;26.77;16.77;;;;;;;;;;5092977;28;20036;-71
2022/12/13 05:33:04;;;;;;;24.17;16.23;;;;;;;;;;5099931;28;20402;-72
2022/12/13 05:35:31;;;;;;;36.33;16.55;;;;;;;;;;5092122;28;20040;-72
2022/12/13 05:37:57;;;;;;;23.30;14.38;;;;;;;;;;5074974;28;20315;-71
2022/12/13 05:40:24;;;;;;;26.63;15.68;;;;;;;;;;5095872;28;20127;-71
2022/12/13 05:42:50;;;;;;;25.23;15.00;;;;;;;;;;5061004;28;20043;-71
2022/12/13 05:45:17;;;;;;;25.65;16.63;;;;;;;;;;5092576;28;20046;-72
2022/12/13 05:47:43;;;;;;;26.17;15.70;;;;;;;;;;5091768;28;20032;-72
2022/12/13 05:50:09;;;;;;;32.65;15.45;;;;;;;;;;5092529;28;20036;-71
2022/12/13 05:52:35;;;;;;;24.33;15.82;;;;;;;;;;5088803;28;20036;-71
2022/12/13 05:55:02;;;;;;;24.75;16.30;;;;;;;;;;5090974;28;20039;-72
2022/12/13 05:57:28;;;;;;;28.15;16.25;;;;;;;;;;5074189;28;20036;-71
2022/12/13 05:59:54;;;;;;;23.02;14.23;;;;;;;;;;5070408;28;20052;-71
2022/12/13 06:02:20;;;;;;;25.52;16.60;;;;;;;;;;5086723;28;20074;-72
2022/12/13 06:04:46;;;;;;;27.52;16.08;;;;;;;;;;5075739;28;20494;-71
2022/12/13 06:07:13;;;;;;;32.42;15.68;;;;;;;;;;5072954;28;20044;-71
2022/12/13 06:09:39;;;;;;;26.15;14.82;;;;;;;;;;5085717;28;20298;-71
2022/12/13 06:12:05;;;;;;;27.95;16.13;;;;;;;;;;5083928;28;20044;-71
2022/12/13 06:14:32;;;;;;;30.95;16.52;;;;;;;;;;5091428;28;20505;-71
2022/12/13 06:16:58;;;;;;;24.80;15.65;;;;;;;;;;5090336;28;20044;-72
2022/12/13 06:19:24;;;;;;;30.23;15.25;;;;;;;;;;5096032;28;20442;-71
2022/12/13 06:21:50;;;;;;;33.72;18.33;;;;;;;;;;5091016;28;20199;-71
2022/12/13 06:24:17;;;;;;;25.85;16.08;;;;;;;;;;5090677;28;20036;-71
2022/12/13 06:26:44;;;;;;;26.25;15.00;;;;;;;;;;5066857;28;20046;-71
2022/12/13 06:29:10;;;;;;;25.98;15.57;;;;;;;;;;5093337;28;20031;-71
2022/12/13 06:31:36;;;;;;;23.80;15.15;;;;;;;;;;5074935;28;20036;-71
2022/12/13 06:34:05;;;;;;;25.88;16.42;;;;;;;;;;5093253;28;20516;-72
2022/12/13 06:36:31;;;;;;;28.80;17.73;;;;;;;;;;5097994;28;20072;-72
2022/12/13 06:39:01;;;;;;;25.27;17.42;;;;;;;;;;5069277;28;20072;-71
2022/12/13 06:41:28;;;;;;;26.42;15.18;;;;;;;;;;5087701;28;20591;-71
2022/12/13 06:43:54;;;;;;;29.98;16.13;;;;;;;;;;5080282;28;20035;-72
2022/12/13 06:46:20;;;;;;;24.48;15.57;;;;;;;;;;5100019;28;20031;-71
2022/12/13 06:48:46;;;;;;;26.23;17.95;;;;;;;;;;5093085;28;20044;-71
2022/12/13 06:51:12;;;;;;;29.20;16.58;;;;;;;;;;5091242;28;20409;-72
2022/12/13 06:53:39;;;;;;;23.25;14.18;;;;;;;;;;5077037;28;20635;-72
2022/12/13 06:56:06;;;;;;;27.42;15.95;;;;;;;;;;5089651;28;20043;-71
2022/12/13 06:58:33;;;;;;;28.67;16.58;;;;;;;;;;5075136;28;20065;-72
2022/12/13 07:01:02;;;;;;;25.70;16.13;;;;;;;;;;5093658;28;20398;-72
2022/12/13 07:03:28;;;;;;;27.85;14.68;;;;;;;;;;5092795;28;20059;-71
2022/12/13 07:05:55;;;;;;;22.88;16.15;;;;;;;;;;5092621;28;20051;-70
2022/12/13 07:08:21;;;;;;;34.22;17.48;;;;;;;;;;5085681;28;20366;-71
2022/12/13 07:10:47;;;;;;;30.55;18.30;;;;;;;;;;5089637;28;20039;-72
2022/12/13 07:13:13;;;;;;;26.13;17.10;;;;;;;;;;5106096;27;20049;-71
2022/12/13 07:15:39;;;;;;;31.30;17.70;;;;;;;;;;5091095;28;20069;-70
2022/12/13 07:18:05;;;;;;;27.58;16.88;;;;;;;;;;5060516;28;20082;-71
2022/12/13 07:20:32;;;;;;;31.48;16.98;;;;;;;;;;5087639;28;20036;-71
2022/12/13 07:22:58;;;;;;;29.67;16.63;;;;;;;;;;5070882;28;20048;-71
2022/12/13 07:25:24;;;;;;;28.90;18.17;;;;;;;;;;5074008;28;20093;-71
2022/12/13 07:27:55;;;;;;;28.08;16.48;;;;;;;;;;5092512;28;20038;-71
2022/12/13 07:30:21;;;;;;;24.40;15.20;;;;;;;;;;5083551;28;20039;-71
2022/12/13 07:32:47;;;;;;;21.60;15.07;;;;;;;;;;5090932;28;20032;-71
2022/12/13 07:35:13;;;;;;;25.00;15.35;;;;;;;;;;5085179;28;20062;-72
2022/12/13 07:37:39;;;;;;;27.25;16.73;;;;;;;;;;5094969;28;20538;-71
2022/12/13 07:40:06;;;;;;;25.85;16.50;;;;;;;;;;5095657;28;20043;-71
2022/12/13 07:42:33;;;;;;;32.20;17.38;;;;;;;;;;5060304;28;20048;-72
2022/12/13 07:44:59;;;;;;;29.20;16.23;;;;;;;;;;5075398;28;20396;-71
2022/12/13 07:47:28;;;;;;;24.95;17.15;;;;;;;;;;5091496;28;20043;-71
2022/12/13 07:49:55;;;;;;;27.55;17.27;;;;;;;;;;5078980;28;20089;-72
2022/12/13 07:52:21;;;;;;;46.53;17.75;;;;;;;;;;5103408;27;20594;-71
2022/12/13 07:54:47;;;;;;;26.13;16.95;;;;;;;;;;5084649;28;20397;-71
2022/12/13 07:57:13;;;;;;;25.08;17.55;;;;;;;;;;5089880;28;20559;-71
2022/12/13 07:59:39;;;;;;;30.90;15.48;;;;;;;;;;5094509;28;20114;-71
2022/12/13 08:02:12;;;;;;;32.08;18.63;;;;;;;;;;5091760;28;20075;-71
2022/12/13 08:04:39;;;;;;;28.85;16.80;;;;;;;;;;5074049;28;20446;-70
2022/12/13 08:07:08;;;;;;;30.25;17.90;;;;;;;;;;5092101;28;20051;-71
2022/12/13 08:09:34;;;;;;;27.80;18.58;;;;;;;;;;5088496;28;20274;-71
2022/12/13 08:12:01;;;;;;;31.95;18.33;;;;;;;;;;5097883;28;20425;-71
2022/12/13 08:14:27;;;;;;;28.85;17.20;;;;;;;;;;5089775;28;20504;-71
2022/12/13 08:16:53;;;;;;;29.02;16.55;;;;;;;;;;5089749;28;20411;-70
2022/12/13 08:19:19;;;;;;;30.42;16.92;;;;;;;;;;5092425;28;20032;-71
2022/12/13 08:21:45;;;;;;;25.98;15.52;;;;;;;;;;5085655;28;20429;-71
2022/12/13 08:24:11;;;;;;;27.15;16.65;;;;;;;;;;5076734;28;20040;-71
2022/12/13 08:26:38;;;;;;;34.45;17.85;;;;;;;;;;5094433;28;20031;-71
2022/12/13 08:29:04;;;;;;;26.92;16.30;;;;;;;;;;5094565;28;20366;-71
2022/12/13 08:31:30;;;;;;;26.35;19.15;;;;;;;;;;5066715;28;20147;-71
2022/12/13 08:33:57;;;;;;;30.92;17.27;;;;;;;;;;5089493;28;20032;-71
2022/12/13 08:36:24;;;;;;;33.03;19.77;;;;;;;;;;5089340;28;20066;-71
2022/12/13 08:38:53;;;;;;;26.60;17.77;;;;;;;;;;5089078;28;20047;-71
2022/12/13 08:41:20;;;;;;;31.50;17.85;;;;;;;;;;5090258;28;20456;-71
2022/12/13 08:43:46;;;;;;;30.52;17.98;;;;;;;;;;5094069;28;20078;-71
2022/12/13 08:46:13;;;;;;;30.92;20.00;;;;;;;;;;5092960;28;20032;-71
2022/12/13 08:48:39;;;;;;;31.23;17.88;;;;;;;;;;5090128;28;20051;-71
2022/12/13 08:51:06;;;;;;;30.38;18.70;;;;;;;;;;5093567;28;20560;-71
2022/12/13 08:53:33;;;;;;;27.30;18.83;;;;;;;;;;5089581;28;20089;-71
2022/12/13 08:56:00;;;;;;;37.92;18.95;;;;;;;;;;5072248;28;20089;-71
2022/12/13 08:58:26;;;;;;;33.50;20.50;;;;;;;;;;5074079;28;20032;-72
2022/12/13 09:00:52;;;;;;;33.90;21.10;;;;;;;;;;5088433;28;20044;-71
2022/12/13 09:03:18;;;;;;;35.88;19.95;;;;;;;;;;5088300;28;20046;-72
2022/12/13 09:05:44;;;;;;;31.98;20.92;;;;;;;;;;5088803;28;20048;-71
2022/12/13 09:08:11;;;;;;;30.80;19.70;;;;;;;;;;5094055;28;20508;-72
2022/12/13 09:10:37;;;;;;;31.15;20.65;;;;;;;;;;5100177;28;20039;-72
2022/12/13 09:13:03;;;;;;;33.78;19.02;;;;;;;;;;5091458;28;20043;-72
2022/12/13 09:15:30;;;;;;;33.00;19.75;;;;;;;;;;5090351;28;20104;-72
2022/12/13 09:17:57;;;;;;;34.88;21.35;;;;;;;;;;5076702;28;20039;-72
2022/12/13 09:20:23;;;;;;;34.28;21.58;;;;;;;;;;5072788;28;20048;-72
2022/12/13 09:22:49;;;;;;;36.97;21.08;;;;;;;;;;5071229;28;20034;-72
2022/12/13 09:25:15;;;;;;;37.60;21.50;;;;;;;;;;5071551;28;20068;-72
2022/12/13 09:27:41;;;;;;;36.55;21.08;;;;;;;;;;5087725;28;20509;-72
2022/12/13 09:30:11;;;;;;;34.25;21.65;;;;;;;;;;5070455;28;20051;-72
2022/12/13 09:32:38;;;;;;;35.72;22.70;;;;;;;;;;5079011;28;20052;-73
2022/12/13 09:35:05;;;;;;;40.45;21.27;;;;;;;;;;5091804;28;20501;-72
2022/12/13 09:37:31;;;;;;;33.08;21.13;;;;;;;;;;5077039;28;20046;-72
2022/12/13 09:39:57;;;;;;;35.70;23.48;;;;;;;;;;5091251;28;20036;-72
2022/12/13 09:42:25;;;;;;;34.88;22.25;;;;;;;;;;5092360;28;20059;-71
2022/12/13 09:44:52;;;;;;;34.95;20.67;;;;;;;;;;5093265;28;20066;-72
2022/12/13 09:47:38;;;;;;;36.50;24.23;;;;;;;;;;5091098;28;20139;-72
2022/12/13 09:50:13;;;;;;;31.58;20.92;;;;;;;;;;5091876;28;20067;-72
2022/12/13 09:52:41;;;;;;;38.03;23.10;;;;;;;;;;5091086;28;20047;-72
2022/12/13 09:55:28;;;;;;;35.53;23.45;;;;;;;;;;5090957;28;20039;-72
2022/12/13 09:57:54;;;;;;;34.53;23.83;;;;;;;;;;5089679;28;20067;-72
2022/12/13 10:00:27;;;;;;;36.97;21.83;;;;;;;;;;5089830;28;20060;-72
2022/12/13 10:02:54;;;;;;;36.83;23.92;;;;;;;;;;5092933;28;20419;-72
2022/12/13 10:05:20;;;;;;;40.20;23.55;;;;;;;;;;5090790;28;20048;-72
2022/12/13 10:07:47;;;;;;;31.63;23.55;;;;;;;;;;5072673;28;20062;-72
2022/12/13 10:10:14;;;;;;;34.05;21.10;;;;;;;;;;5078933;28;20581;-72
2022/12/13 10:12:42;;;;;;;40.30;23.70;;;;;;;;;;5091441;28;20372;-73
2022/12/13 10:15:10;;;;;;;44.25;22.20;;;;;;;;;;5091319;28;20599;-73
2022/12/13 10:17:39;;;;;;;37.65;22.95;;;;;;;;;;5091875;28;20075;-73
2022/12/13 10:20:06;;;;;;;38.22;23.30;;;;;;;;;;5105641;27;20093;-73
2022/12/13 10:22:32;;;;;;;33.63;24.08;;;;;;;;;;5092058;28;20150;-73
2022/12/13 10:25:03;;;;;;;33.13;21.67;;;;;;;;;;5073233;28;20044;-72
2022/12/13 10:27:33;;;;;;;36.92;21.42;;;;;;;;;;5088641;28;20116;-72
2022/12/13 10:29:59;;;;;;;33.80;21.65;;;;;;;;;;5088979;28;20051;-73
2022/12/13 10:32:25;;;;;;;32.35;21.10;;;;;;;;;;5089494;28;20047;-73
2022/12/13 10:34:54;;;;;;;34.75;22.77;;;;;;;;;;5098866;27;20127;-73
2022/12/13 10:37:30;;;;;;;34.45;21.40;;;;;;;;;;5090064;28;20085;-73
2022/12/13 10:39:57;;;;;;;33.17;20.85;;;;;;;;;;5091766;28;20082;-73
2022/12/13 10:42:23;;;;;;;33.33;23.27;;;;;;;;;;5085925;28;20398;-73
2022/12/13 10:45:07;;;;;;;34.45;22.33;;;;;;;;;;5090581;28;20504;-73
2022/12/13 10:47:35;;;;;;;36.40;23.35;;;;;;;;;;5105401;27;20036;-74
2022/12/13 10:50:01;;;;;;;34.25;23.50;;;;;;;;;;5081456;28;20079;-74
2022/12/13 10:52:41;;;;;;;37.30;24.17;;;;;;;;;;5089452;28;20052;-73
2022/12/13 10:55:22;;;;;;;35.78;20.90;;;;;;;;;;5086160;28;20509;-73
2022/12/13 10:57:52;;;;;;;34.63;23.02;;;;;;;;;;5094330;28;20048;-73
2022/12/13 11:00:31;;;;;;;38.10;21.83;;;;;;;;;;5075067;28;20578;-73
2022/12/13 11:02:57;;;;;;;33.65;22.02;;;;;;;;;;5088362;28;20040;-73
2022/12/13 11:05:25;;;;;;;35.28;22.42;;;;;;;;;;5094293;28;20039;-73
2022/12/13 11:07:52;;;;;;;35.63;21.80;;;;;;;;;;5078293;28;20367;-73
2022/12/13 11:10:26;;;;;;;36.47;24.25;;;;;;;;;;5091608;28;20462;-73
2022/12/13 11:12:55;;;;;;;36.92;23.55;;;;;;;;;;5073789;28;20123;-73
2022/12/13 11:15:24;;;;;;;36.42;22.90;;;;;;;;;;5087873;28;20070;-73
2022/12/13 11:17:58;;;;;;;36.95;21.52;;;;;;;;;;5092109;28;20166;-74
2022/12/13 11:20:35;;;;;;;30.85;20.38;;;;;;;;;;5088517;28;20401;-73
2022/12/13 11:23:13;;;;;;;31.75;21.05;;;;;;;;;;5091056;28;20048;-71
2022/12/13 11:25:40;;;;;;;34.47;20.38;;;;;;;;;;5098312;28;20040;-72
2022/12/13 11:28:11;;;;;;;28.70;17.70;;;;;;;;;;5076763;28;20558;-74
2022/12/13 11:30:38;;;;;;;31.27;20.50;;;;;;;;;;5087566;28;20048;-74
2022/12/13 11:33:14;;;;;;;34.22;21.05;;;;;;;;;;5070495;28;20036;-74
2022/12/13 11:36:19;;;;;;;32.45;18.88;;;;;;;;;;5087442;28;20074;-74
2022/12/13 11:38:45;;;;;;;33.53;19.05;;;;;;;;;;5030865;28;20048;-74
2022/12/13 11:41:22;;;;;;;26.33;17.80;;;;;;;;;;5008913;28;20180;-73
2022/12/13 11:43:57;;;;;;;25.98;19.25;;;;;;;;;;5062460;28;20039;-73
2022/12/13 11:46:34;;;;;;;25.95;17.42;;;5.70;99.90;;;;;;5086705;28;20501;-73
2022/12/13 11:49:02;;;;;;;23.60;17.52;;;;;;;;;;5090264;28;20048;-72
2022/12/13 11:51:37;;;;;;;22.92;17.17;;;;;;;;;;5076560;28;20113;-74
2022/12/13 11:54:13;;;;;;;21.52;15.30;;;6.10;99.90;;;;;;5105529;28;20173;-73
2022/12/13 11:56:43;;;;;;;24.45;16.70;;;7.00;99.90;;;;;;5086722;28;20365;-73
2022/12/13 11:59:09;;;;;;;25.20;17.50;;;;;;;;;;5084619;28;20093;-73
2022/12/13 12:01:46;;;;;;;18.80;14.25;;;;;;;;;;5086611;28;20056;-73
2022/12/13 12:04:12;;;;;;;29.00;16.17;;;;;;;;;;5086762;28;20047;-74
2022/12/13 12:06:40;;;;;;;21.85;15.18;;;;;;;;;;5064865;28;20053;-73
2022/12/13 12:09:15;;;;;;;22.70;16.70;;;7.20;99.90;;;;;;5083380;28;20032;-73
2022/12/13 12:11:59;;;;;;;19.23;13.85;;;9.10;99.90;;;;;;5086415;28;20047;-74
2022/12/13 12:14:45;;;;;;;20.52;14.15;;;9.20;99.90;;;;;;5085498;28;20040;-74
2022/12/13 12:17:17;;;;;;;19.33;14.00;;;9.20;99.90;;;;;;5092023;28;20044;-74
2022/12/13 12:19:47;;;;;;;20.55;14.73;;;9.20;99.90;;;;;;5070213;28;20040;-74
2022/12/13 12:22:41;;;;;;;20.08;15.52;;;8.90;99.90;;;;;;5084862;28;20032;-74
2022/12/13 12:25:37;;;;;;;18.83;14.07;;;8.70;99.90;;;;;;5081467;28;20354;-75
2022/12/13 12:28:15;;;;;;;22.40;15.82;;;8.50;99.90;;;;;;5084207;28;20036;-74
2022/12/13 12:30:41;;;;;;;17.60;14.45;;;;;;;;;;5088586;28;20139;-72
2022/12/13 12:33:22;;;;;;;22.67;14.38;;;;;;;;;;5075695;28;20048;-74
2022/12/13 12:35:58;;;;;;;21.38;16.05;;;;;;;;;;5058566;28;20086;-74
2022/12/13 12:38:44;;;;;;;18.02;13.00;;;;;;;;;;5083310;28;20116;-75
2022/12/13 12:41:22;;;;;;;18.67;13.88;;;;;;;;;;5059934;28;20062;-75
2022/12/13 12:43:54;;;;;;;17.13;13.57;;;;;;;;;;5093240;28;20059;-74
2022/12/13 12:46:23;;;;;;;23.90;14.20;;;;;;;;;;5092646;28;20043;-74
2022/12/13 12:49:09;;;;;;;19.65;14.77;;;;;;;;;;5072751;28;20047;-75
2022/12/13 12:51:57;;;;;;;21.40;13.45;;;8.40;99.90;;;;;;5062364;28;20059;-74
2022/12/13 12:54:42;;;;;;;20.00;14.57;;;7.40;99.90;;;;;;5094495;28;20035;-74
2022/12/13 12:57:30;;;;;;;19.02;12.75;;;7.00;99.90;;;;;;5071547;28;20042;-74
2022/12/13 13:00:04;;;;;;;20.75;13.07;;;;;;;;;;5087926;28;20393;-72
2022/12/13 13:02:51;;;;;;;23.08;14.93;;;6.60;99.90;;;;;;5088876;28;20436;-74
2022/12/13 13:05:45;;;;;;;22.35;14.13;;;7.10;99.90;;;;;;5092358;28;20502;-76
2022/12/13 13:08:20;;;;;;;19.02;14.45;;;7.00;99.90;;;;;;5095414;28;20044;-74
2022/12/13 13:10:47;;;;;;;21.27;15.48;;;;;;;;;;5074461;28;20040;-74
2022/12/13 13:13:33;;;;;;;18.10;13.73;;;;;;;;;;5086819;28;20051;-74
2022/12/13 13:16:00;;;;;;;21.20;14.23;;;;;;;;;;5091387;28;20485;-74
2022/12/13 13:18:45;;;;;;;18.55;13.85;;;;;;;;;;5095689;28;20043;-74
2022/12/13 13:21:24;;;;;;;19.80;14.02;;;;;;;;;;5094412;28;20036;-74
2022/12/13 13:24:05;;;;;;;20.45;13.55;;;;;;;;;;5094547;28;20032;-74
2022/12/13 13:26:32;;;;;;;19.98;13.82;;;;;;;;;;5076272;28;20050;-74
2022/12/13 13:29:34;;;;;;;19.90;13.73;;;;;;;;;;5092459;28;20528;-74
2022/12/13 13:32:04;;;;;;;19.02;13.10;;;;;;;;;;5022369;28;20114;-74
2022/12/13 13:34:31;;;;;;;19.70;13.13;;;;;;;;;;5083237;28;20052;-74
2022/12/13 13:36:58;;;;;;;20.33;14.40;;;;;;;;;;5094509;28;20492;-75
2022/12/13 13:39:27;;;;;;;22.58;14.45;;;;;;;;;;5082888;28;20035;-75
2022/12/13 13:42:08;;;;;;;19.73;14.20;;;;;;;;;;5094986;28;20044;-74
2022/12/13 13:44:34;;;;;;;18.60;14.43;;;;;;;;;;5091971;28;20038;-73
2022/12/13 13:47:11;;;;;;;21.13;14.70;;;;;;;;;;5089619;28;20138;-72
2022/12/13 13:49:59;;;;;;;17.55;13.55;;;6.60;99.90;;;;;;5095514;28;20035;-72
2022/12/13 13:52:54;;;;;;;22.75;14.43;;;11.50;93.50;;;;;;5092411;28;20043;-72
2022/12/13 13:55:43;;;;;;;19.75;13.98;;;;;;;;;;5088034;28;20035;-72
2022/12/13 13:58:19;;;;;;;21.50;16.00;;;;;;;;;;5071110;28;20139;-71
2022/12/13 14:00:54;;;;;;;21.65;15.18;;;;;;;;;;5089098;28;20077;-73
2022/12/13 14:03:33;;;;;;;22.80;15.52;;;;;;;;;;5076761;28;20127;-72
2022/12/13 14:06:10;;;;;;;22.35;14.55;;;;;;;;;;5085810;28;20516;-73
2022/12/13 14:08:39;;;;;;;20.05;13.63;;;;;;;;;;5090912;28;20036;-72
2022/12/13 14:11:24;;;;;;;23.63;15.80;;;;;;;;;;5088072;28;20032;-72
2022/12/13 14:14:09;;;;;;;22.15;15.30;;;;;;;;;;5099122;28;20038;-73
2022/12/13 14:16:53;;;;;;;20.08;15.10;;;;;;;;;;5084202;28;20044;-73
2022/12/13 14:19:29;;;;;;;27.75;15.35;;;;;;;;;;5076490;28;20032;-72
2022/12/13 14:22:04;;;;;;;21.42;15.30;;;;;;;;;;5090811;28;20032;-72
2022/12/13 14:24:43;;;;;;;20.55;15.38;;;;;;;;;;5076574;28;20478;-72
2022/12/13 14:27:10;;;;;;;21.02;14.95;;;;;;;;;;5102400;28;20051;-72
2022/12/13 14:29:40;;;;;;;28.23;17.27;;;;;;;;;;5089028;28;20036;-72
2022/12/13 14:32:17;;;;;;;22.20;13.18;;;;;;;;;;5092957;28;20398;-72
2022/12/13 14:34:44;;;;;;;21.15;15.18;;;;;;;;;;5091052;28;20054;-72
2022/12/13 14:37:29;;;;;;;18.75;13.65;;;;;;;;;;5101754;28;20062;-72
2022/12/13 14:39:55;;;;;;;23.38;14.43;;;;;;;;;;5091915;28;20036;-72
2022/12/13 14:42:28;;;;;;;22.02;15.18;;;;;;;;;;5096565;28;20398;-72
2022/12/13 14:44:54;;;;;;;21.58;15.65;;;;;;;;;;5092285;28;20431;-72
2022/12/13 14:47:21;;;;;;;23.65;16.13;;;;;;;;;;5093515;28;20055;-71
2022/12/13 14:49:51;;;;;;;23.23;15.98;;;;;;;;;;5101383;28;20393;-72
2022/12/13 14:52:19;;;;;;;21.17;14.57;;;;;;;;;;5081965;28;20036;-72
2022/12/13 14:54:51;;;;;;;25.70;15.25;;;;;;;;;;5097653;28;20040;-72
2022/12/13 14:57:19;;;;;;;22.65;14.18;;;;;;;;;;5096770;28;20514;-72
2022/12/13 14:59:46;;;;;;;19.92;13.85;;;;;;;;;;5080937;28;20085;-72
2022/12/13 15:02:15;;;;;;;23.55;15.10;;;;;;;;;;5096346;28;20042;-72
2022/12/13 15:04:41;;;;;;;22.40;14.18;;;;;;;;;;5063526;28;20085;-72
2022/12/13 15:07:08;;;;;;;24.25;14.63;;;;;;;;;;5090590;28;20043;-73
2022/12/13 15:09:39;;;;;;;20.05;13.95;;;;;;;;;;5089343;28;20059;-72
2022/12/13 15:12:13;;;;;;;22.23;14.90;;;;;;;;;;5090462;28;20032;-72